DAL1889 KATL-TIST
Flight info
| Callsign | DAL1889 |
|---|---|
| Flight time | N/A |
| Altitude | 39000 |
| Route | VRSTY3 NOKIE DCT YANTI Q89 MANLE Y185 RENAH Y355 KOLAO DCT JETSS DCT |
| Aircraft | B752/M-SDFHIRWXY/S |
Departure
| Time | N/A |
|---|---|
| Airport | Hartsfield Jackson Atlanta International Airport (KATL) |
Arrival
| Time | 2026-05-07 00:56 |
|---|---|
| Airport | Cyril E. King Airport (TIST) |
| Time | Latitude | Longitude | Altitude | Speed | Heading |
|---|---|---|---|---|---|
| 2026-05-07 00:18 | 20.62458 | -67.65759 | 39109 ft | 490 kts | 126° |
| 2026-05-07 00:19 | 20.58256 | -67.60009 | 39110 ft | 490 kts | 126° |
| 2026-05-07 00:19 | 20.54059 | -67.54269 | 39110 ft | 490 kts | 126° |
| 2026-05-07 00:20 | 20.49894 | -67.48581 | 39110 ft | 490 kts | 126° |
| 2026-05-07 00:20 | 20.45668 | -67.42815 | 39111 ft | 490 kts | 127° |
| 2026-05-07 00:21 | 20.41466 | -67.37087 | 39110 ft | 490 kts | 127° |
| 2026-05-07 00:21 | 20.37271 | -67.31374 | 39112 ft | 490 kts | 127° |
| 2026-05-07 00:22 | 20.33073 | -67.25662 | 39111 ft | 489 kts | 127° |
| 2026-05-07 00:22 | 20.28841 | -67.19909 | 39112 ft | 489 kts | 127° |
| 2026-05-07 00:23 | 20.20502 | -67.08590 | 39104 ft | 489 kts | 128° |
| 2026-05-07 00:24 | 20.16300 | -67.02894 | 39101 ft | 489 kts | 128° |
| 2026-05-07 00:24 | 20.12102 | -66.97211 | 39099 ft | 488 kts | 128° |
| 2026-05-07 00:25 | 20.07879 | -66.91499 | 39100 ft | 488 kts | 128° |
| 2026-05-07 00:25 | 20.03685 | -66.85830 | 39100 ft | 487 kts | 129° |
| 2026-05-07 00:27 | 19.94745 | -66.71268 | 39096 ft | 486 kts | 118° |
| 2026-05-07 00:27 | 19.93251 | -66.68097 | 39025 ft | 473 kts | 118° |
| 2026-05-07 00:27 | 19.91785 | -66.64994 | 38420 ft | 472 kts | 118° |
| 2026-05-07 00:27 | 19.90278 | -66.61875 | 37659 ft | 474 kts | 118° |
| 2026-05-07 00:28 | 19.88746 | -66.58774 | 36943 ft | 476 kts | 119° |
| 2026-05-07 00:28 | 19.87190 | -66.55667 | 36243 ft | 476 kts | 118° |
| 2026-05-07 00:28 | 19.85628 | -66.52565 | 35534 ft | 476 kts | 118° |
| 2026-05-07 00:28 | 19.84070 | -66.49471 | 34880 ft | 475 kts | 118° |
| 2026-05-07 00:29 | 19.82518 | -66.46387 | 34217 ft | 473 kts | 118° |
| 2026-05-07 00:29 | 19.80968 | -66.43301 | 33575 ft | 471 kts | 117° |
| 2026-05-07 00:30 | 19.76173 | -66.33736 | 31614 ft | 520 kts | 117° |
| 2026-05-07 00:30 | 19.74441 | -66.30285 | 30887 ft | 537 kts | 117° |
| 2026-05-07 00:30 | 19.72670 | -66.26762 | 30164 ft | 539 kts | 118° |
| 2026-05-07 00:30 | 19.70920 | -66.23286 | 29433 ft | 532 kts | 118° |
| 2026-05-07 00:31 | 19.69184 | -66.19837 | 28686 ft | 525 kts | 118° |
| 2026-05-07 00:31 | 19.67479 | -66.16454 | 27951 ft | 517 kts | 118° |
| 2026-05-07 00:31 | 19.65798 | -66.13120 | 27236 ft | 507 kts | 118° |
| 2026-05-07 00:31 | 19.64172 | -66.09894 | 26540 ft | 497 kts | 118° |
| 2026-05-07 00:32 | 19.62558 | -66.06694 | 25827 ft | 487 kts | 118° |
| 2026-05-07 00:32 | 19.60980 | -66.03567 | 25143 ft | 476 kts | 118° |
| 2026-05-07 00:32 | 19.59430 | -66.00499 | 24488 ft | 466 kts | 118° |
| 2026-05-07 00:32 | 19.57917 | -65.97504 | 23849 ft | 456 kts | 118° |
| 2026-05-07 00:33 | 19.56436 | -65.94574 | 23222 ft | 447 kts | 118° |
| 2026-05-07 00:33 | 19.54978 | -65.91692 | 22627 ft | 438 kts | 118° |
| 2026-05-07 00:33 | 19.53551 | -65.88873 | 22023 ft | 430 kts | 118° |
| 2026-05-07 00:33 | 19.52151 | -65.86107 | 21426 ft | 423 kts | 118° |
| 2026-05-07 00:34 | 19.50770 | -65.83381 | 20844 ft | 418 kts | 118° |
| 2026-05-07 00:34 | 19.49403 | -65.80683 | 20275 ft | 413 kts | 118° |
| 2026-05-07 00:34 | 19.48069 | -65.78052 | 19733 ft | 409 kts | 118° |
| 2026-05-07 00:34 | 19.46715 | -65.75383 | 19169 ft | 413 kts | 118° |
| 2026-05-07 00:35 | 19.45349 | -65.72691 | 18587 ft | 417 kts | 118° |
| 2026-05-07 00:35 | 19.43974 | -65.69982 | 18004 ft | 420 kts | 117° |
| 2026-05-07 00:35 | 19.42582 | -65.67242 | 17416 ft | 423 kts | 117° |
| 2026-05-07 00:35 | 19.41181 | -65.64484 | 16824 ft | 426 kts | 118° |
| 2026-05-07 00:36 | 19.39775 | -65.61719 | 16146 ft | 426 kts | 118° |
| 2026-05-07 00:36 | 19.38382 | -65.58982 | 15561 ft | 417 kts | 118° |
| 2026-05-07 00:36 | 19.37020 | -65.56304 | 15005 ft | 409 kts | 118° |
| 2026-05-07 00:36 | 19.35700 | -65.53712 | 14457 ft | 402 kts | 118° |
| 2026-05-07 00:37 | 19.34382 | -65.51125 | 13909 ft | 395 kts | 118° |
| 2026-05-07 00:37 | 19.33091 | -65.48591 | 13369 ft | 389 kts | 118° |
| 2026-05-07 00:37 | 19.31644 | -65.46187 | 12564 ft | 390 kts | 130° |
| 2026-05-07 00:37 | 19.29606 | -65.44337 | 12063 ft | 385 kts | 147° |
| 2026-05-07 00:38 | 19.27177 | -65.43195 | 11715 ft | 381 kts | 163° |
| 2026-05-07 00:38 | 19.24579 | -65.42665 | 11266 ft | 378 kts | 173° |
| 2026-05-07 00:38 | 19.21976 | -65.42446 | 10788 ft | 373 kts | 176° |
| 2026-05-07 00:38 | 19.19413 | -65.42286 | 10444 ft | 362 kts | 176° |
| 2026-05-07 00:39 | 19.17000 | -65.42089 | 10383 ft | 344 kts | 175° |
| 2026-05-07 00:39 | 19.14682 | -65.41850 | 10357 ft | 326 kts | 174° |
| 2026-05-07 00:39 | 19.12473 | -65.41598 | 10306 ft | 311 kts | 173° |
| 2026-05-07 00:39 | 19.10374 | -65.41356 | 10239 ft | 298 kts | 173° |
| 2026-05-07 00:40 | 19.08349 | -65.41127 | 10145 ft | 287 kts | 173° |
| 2026-05-07 00:40 | 19.06386 | -65.40910 | 10053 ft | 281 kts | 173° |
| 2026-05-07 00:40 | 19.04448 | -65.40696 | 9956 ft | 278 kts | 173° |
| 2026-05-07 00:40 | 19.02526 | -65.40484 | 9610 ft | 278 kts | 173° |
| 2026-05-07 00:41 | 19.00607 | -65.40272 | 9275 ft | 277 kts | 173° |
| 2026-05-07 00:41 | 18.98697 | -65.40060 | 8766 ft | 283 kts | 173° |
| 2026-05-07 00:41 | 18.96712 | -65.39841 | 8382 ft | 283 kts | 173° |
| 2026-05-07 00:41 | 18.94786 | -65.39628 | 8052 ft | 281 kts | 173° |
| 2026-05-07 00:42 | 18.92842 | -65.39413 | 7723 ft | 280 kts | 173° |
| 2026-05-07 00:42 | 18.90912 | -65.39200 | 7395 ft | 278 kts | 173° |
| 2026-05-07 00:42 | 18.88997 | -65.38989 | 7074 ft | 276 kts | 173° |
| 2026-05-07 00:42 | 18.87094 | -65.38779 | 6753 ft | 274 kts | 173° |
| 2026-05-07 00:43 | 18.85196 | -65.38570 | 6429 ft | 273 kts | 173° |
| 2026-05-07 00:43 | 18.83313 | -65.38362 | 6108 ft | 271 kts | 173° |
| 2026-05-07 00:43 | 18.81469 | -65.38158 | 5792 ft | 270 kts | 173° |
| 2026-05-07 00:43 | 18.79608 | -65.37953 | 5472 ft | 268 kts | 173° |
| 2026-05-07 00:44 | 18.77753 | -65.37748 | 5153 ft | 267 kts | 173° |
| 2026-05-07 00:44 | 18.75911 | -65.37545 | 4835 ft | 266 kts | 172° |
| 2026-05-07 00:44 | 18.74080 | -65.37343 | 4521 ft | 264 kts | 172° |
| 2026-05-07 00:44 | 18.72254 | -65.37141 | 4208 ft | 263 kts | 172° |
| 2026-05-07 00:45 | 18.70434 | -65.36941 | 3895 ft | 262 kts | 172° |
| 2026-05-07 00:45 | 18.68631 | -65.36746 | 3590 ft | 260 kts | 172° |
| 2026-05-07 00:45 | 18.66841 | -65.36478 | 3281 ft | 259 kts | 167° |
| 2026-05-07 00:45 | 18.65082 | -65.36112 | 3104 ft | 257 kts | 166° |
| 2026-05-07 00:46 | 18.63331 | -65.35737 | 3041 ft | 257 kts | 166° |
| 2026-05-07 00:46 | 18.61600 | -65.35365 | 3022 ft | 257 kts | 166° |
| 2026-05-07 00:46 | 18.59846 | -65.34987 | 3017 ft | 258 kts | 166° |
| 2026-05-07 00:46 | 18.58086 | -65.34609 | 3016 ft | 258 kts | 166° |
| 2026-05-07 00:47 | 18.56330 | -65.34232 | 3016 ft | 258 kts | 166° |
| 2026-05-07 00:47 | 18.54577 | -65.33855 | 3016 ft | 258 kts | 166° |
| 2026-05-07 00:47 | 18.52820 | -65.33477 | 3016 ft | 258 kts | 166° |
| 2026-05-07 00:47 | 18.51064 | -65.33100 | 3016 ft | 258 kts | 166° |
| 2026-05-07 00:48 | 18.49331 | -65.32727 | 3016 ft | 258 kts | 166° |
| 2026-05-07 00:48 | 18.47572 | -65.32349 | 3016 ft | 258 kts | 166° |
| 2026-05-07 00:48 | 18.45812 | -65.31970 | 3016 ft | 258 kts | 166° |
| 2026-05-07 00:48 | 18.44058 | -65.31593 | 3015 ft | 258 kts | 166° |
| 2026-05-07 00:49 | 18.42300 | -65.31215 | 3014 ft | 258 kts | 166° |
| 2026-05-07 00:49 | 18.40540 | -65.30837 | 3013 ft | 258 kts | 166° |
| 2026-05-07 00:49 | 18.38782 | -65.30459 | 3013 ft | 256 kts | 166° |
| 2026-05-07 00:49 | 18.37117 | -65.29970 | 2968 ft | 242 kts | 152° |
| 2026-05-07 00:50 | 18.35914 | -65.28862 | 2971 ft | 223 kts | 124° |
| 2026-05-07 00:50 | 18.35169 | -65.27519 | 3015 ft | 211 kts | 117° |
| 2026-05-07 00:50 | 18.34500 | -65.26160 | 3014 ft | 208 kts | 116° |
| 2026-05-07 00:50 | 18.33843 | -65.24806 | 3013 ft | 208 kts | 116° |
| 2026-05-07 00:51 | 18.33323 | -65.23391 | 3009 ft | 208 kts | 105° |
| 2026-05-07 00:51 | 18.33060 | -65.21896 | 3012 ft | 208 kts | 97° |
| 2026-05-07 00:51 | 18.32949 | -65.20384 | 3011 ft | 208 kts | 93° |
| 2026-05-07 00:51 | 18.32920 | -65.18867 | 3009 ft | 208 kts | 90° |
| 2026-05-07 00:52 | 18.32934 | -65.17345 | 3008 ft | 208 kts | 89° |
| 2026-05-07 00:52 | 18.32971 | -65.15846 | 3007 ft | 207 kts | 89° |
| 2026-05-07 00:52 | 18.33020 | -65.14343 | 2896 ft | 203 kts | 88° |
| 2026-05-07 00:52 | 18.33075 | -65.12887 | 2692 ft | 197 kts | 88° |
| 2026-05-07 00:53 | 18.33131 | -65.11467 | 2465 ft | 193 kts | 88° |
| 2026-05-07 00:53 | 18.33189 | -65.10065 | 2223 ft | 190 kts | 88° |
| 2026-05-07 00:53 | 18.33246 | -65.08691 | 1979 ft | 186 kts | 88° |
| 2026-05-07 00:53 | 18.33302 | -65.07381 | 1741 ft | 169 kts | 88° |
| 2026-05-07 00:54 | 18.33351 | -65.06226 | 1511 ft | 148 kts | 88° |
| 2026-05-07 00:54 | 18.33394 | -65.05219 | 1324 ft | 131 kts | 89° |
| 2026-05-07 00:54 | 18.33436 | -65.04284 | 1169 ft | 127 kts | 88° |
| 2026-05-07 00:54 | 18.33473 | -65.03353 | 995 ft | 128 kts | 89° |
| 2026-05-07 00:55 | 18.33502 | -65.02415 | 812 ft | 127 kts | 90° |
| 2026-05-07 00:55 | 18.33545 | -65.01494 | 645 ft | 127 kts | 88° |
| 2026-05-07 00:55 | 18.33596 | -65.00569 | 490 ft | 126 kts | 89° |
| 2026-05-07 00:55 | 18.33626 | -64.99651 | 329 ft | 126 kts | 89° |
| 2026-05-07 00:56 | 18.33670 | -64.98730 | 155 ft | 126 kts | 89° |
| 2026-05-07 00:56 | 18.33711 | -64.97816 | 35 ft | 117 kts | 89° |
| 2026-05-07 00:56 | 18.33732 | -64.97236 | 34 ft | 45 kts | 88° |
| 2026-05-07 00:56 | 18.33722 | -64.97137 | 34 ft | 9 kts | 134° |
| 2026-05-07 00:57 | 18.33670 | -64.97124 | 34 ft | 6 kts | 200° |
| 2026-05-07 00:57 | 18.33655 | -64.97160 | 34 ft | 6 kts | 261° |
| 2026-05-07 00:57 | 18.33652 | -64.97207 | 34 ft | 7 kts | 268° |
| 2026-05-07 00:57 | 18.33643 | -64.97253 | 34 ft | 6 kts | 225° |
| 2026-05-07 00:58 | 18.33602 | -64.97261 | 34 ft | 6 kts | 180° |
| 2026-05-07 00:58 | 18.33564 | -64.97260 | 34 ft | 2 kts | 178° |